Time;durP1;ratioP1;P1;durP2;ratioP2;P2;SDS_P1;SDS_P2;PMS_P1;PMS_P2;Temp;Humidity;BMP_temperature;BMP_pressure;BME280_temperature;BME280_humidity;BME280_pressure;Samples;Min_cycle;Max_cycle;Signal;HPM_P1;HPM_P2
2022/03/19 00:00:26;;;;;;;14.50;2.20;;;6.50;97.20;;;;;;4266691;27;20087;-89
2022/03/19 00:02:27;;;;;;;9.63;1.55;;;6.50;97.30;;;;;;4267597;27;20038;-88
2022/03/19 00:04:28;;;;;;;10.15;1.50;;;5.40;97.00;;;;;;4248704;27;20552;-88
2022/03/19 00:06:29;;;;;;;9.65;1.23;;;6.20;97.20;;;;;;4231416;28;20043;-88
2022/03/19 00:08:31;;;;;;;7.53;1.70;;;6.20;97.00;;;;;;4231839;28;20044;-88
2022/03/19 00:10:32;;;;;;;6.30;1.23;;;5.40;96.80;;;;;;4266192;27;20540;-88
2022/03/19 00:12:38;;;;;;;7.95;2.40;;;6.10;97.10;;;;;;4249164;27;20047;-88
2022/03/19 00:14:41;;;;;;;11.45;2.83;;;5.10;96.90;;;;;;4231470;28;20053;-89
2022/03/19 00:16:42;;;;;;;6.43;0.82;;;6.40;97.30;;;;;;4232198;28;20173;-87
2022/03/19 00:18:43;;;;;;;14.35;3.08;;;6.30;97.40;;;;;;4230993;28;20520;-88
2022/03/19 00:20:44;;;;;;;9.15;2.22;;;5.20;97.20;;;;;;4231725;28;20055;-88
2022/03/19 00:22:45;;;;;;;9.70;1.90;;;6.30;97.40;;;;;;4231946;28;20485;-88
2022/03/19 00:24:45;;;;;;;12.07;2.17;;;5.00;97.40;;;;;;4214841;28;20123;-88
2022/03/19 00:26:46;;;;;;;15.35;1.77;;;5.40;97.20;;;;;;4231923;28;20047;-88
2022/03/19 00:28:47;;;;;;;8.77;1.10;;;5.00;97.40;;;;;;4218583;28;20054;-88
2022/03/19 00:30:48;;;;;;;10.13;1.83;;;5.80;97.50;;;;;;4232101;28;20042;-87
2022/03/19 00:32:49;;;;;;;13.75;2.08;;;5.10;97.50;;;;;;4249566;28;20122;-88
2022/03/19 00:34:49;;;;;;;10.02;1.58;;;5.60;97.70;;;;;;4215392;28;20040;-88
2022/03/19 00:36:50;;;;;;;10.10;2.17;;;4.90;97.50;;;;;;4215394;28;20520;-88
2022/03/19 00:38:51;;;;;;;11.82;2.10;;;5.70;97.80;;;;;;4214547;28;20077;-88
2022/03/19 00:40:52;;;;;;;12.30;1.42;;;4.90;97.60;;;;;;4231949;28;20051;-89
2022/03/19 00:42:52;;;;;;;10.68;2.45;;;6.20;97.90;;;;;;4234601;28;20495;-89
2022/03/19 00:44:53;;;;;;;5.85;0.95;;;5.00;97.60;;;;;;4252266;27;20584;-89
2022/03/19 00:46:55;;;;;;;6.28;1.60;;;5.00;97.70;;;;;;4252537;27;20473;-89
2022/03/19 00:48:56;;;;;;;8.82;1.55;;;5.60;98.00;;;;;;4228585;28;20093;-88
2022/03/19 00:50:58;;;;;;;7.53;1.50;;;5.70;98.10;;;;;;4251860;27;20050;-88
2022/03/19 00:53:00;;;;;;;10.70;1.55;;;5.20;98.20;;;;;;4234668;28;20517;-88
2022/03/19 00:55:01;;;;;;;8.50;1.88;;;4.90;97.90;;;;;;4235155;28;20093;-88
2022/03/19 00:57:01;;;;;;;14.75;1.20;;;5.60;98.20;;;;;;4251926;27;20039;-88
2022/03/19 00:59:03;;;;;;;9.95;2.25;;;4.80;98.00;;;;;;4251699;27;20054;-88
2022/03/19 01:01:04;;;;;;;9.05;1.20;;;4.80;97.80;;;;;;4234276;28;20055;-90
2022/03/19 01:03:06;;;;;;;5.90;1.20;;;4.60;97.90;;;;;;4270876;27;20406;-88
2022/03/19 01:05:08;;;;;;;9.85;1.88;;;6.00;98.40;;;;;;4251777;27;20081;-88
2022/03/19 01:07:11;;;;;;;8.88;1.92;;;4.70;98.10;;;;;;4252413;27;20134;-88
2022/03/19 01:09:11;;;;;;;15.98;3.08;;;4.00;98.20;;;;;;4244580;28;20059;-88
2022/03/19 01:11:15;;;;;;;10.77;1.48;;;5.80;98.50;;;;;;4257694;27;20102;-88
2022/03/19 01:13:15;;;;;;;13.52;2.13;;;6.00;98.80;;;;;;4261507;27;20490;-89
2022/03/19 01:15:18;;;;;;;7.70;1.77;;;5.60;98.70;;;;;;4251752;28;20130;-88
2022/03/19 01:17:19;;;;;;;8.25;1.50;;;5.70;98.80;;;;;;4270279;27;20060;-88
2022/03/19 01:19:52;;;;;;;14.30;2.08;;;4.90;98.60;;;;;;4268770;27;20060;-89
2022/03/19 01:21:41;;;;;;;8.98;1.20;;;5.80;98.90;;;;;;4269497;27;20051;-89
2022/03/19 01:23:43;;;;;;;11.60;2.58;;;4.90;98.60;;;;;;4286975;27;20022;-88
2022/03/19 01:25:43;;;;;;;11.75;2.20;;;4.90;98.80;;;;;;4252557;28;20126;-89
2022/03/19 01:27:47;;;;;;;10.55;1.60;;;4.50;98.70;;;;;;4253511;28;20032;-89
2022/03/19 01:29:48;;;;;;;8.35;1.30;;;4.50;98.70;;;;;;4270695;27;20077;-89
2022/03/19 01:31:49;;;;;;;12.88;2.90;;;5.70;99.10;;;;;;4253481;28;20039;-89
2022/03/19 01:33:49;;;;;;;12.73;2.42;;;4.70;98.80;;;;;;4287823;27;20019;-89
2022/03/19 01:35:50;;;;;;;9.50;1.63;;;5.70;99.10;;;;;;4253188;28;20070;-89
2022/03/19 01:37:52;;;;;;;15.00;1.88;;;5.70;99.20;;;;;;4287689;27;20122;-89
2022/03/19 01:39:55;;;;;;;7.95;1.30;;;4.40;99.10;;;;;;4252370;28;20031;-88
2022/03/19 01:41:57;;;;;;;8.75;1.88;;;4.90;99.30;;;;;;4252778;28;20055;-88
2022/03/19 01:43:58;;;;;;;13.52;1.98;;;5.60;99.40;;;;;;4287945;27;20032;-89
2022/03/19 01:45:59;;;;;;;10.98;2.08;;;5.40;99.70;;;;;;4286974;27;20046;-89
2022/03/19 01:48:00;;;;;;;13.07;1.77;;;5.70;99.50;;;;;;4287582;27;20062;-88
2022/03/19 01:50:01;;;;;;;9.23;2.08;;;4.60;99.30;;;;;;4269700;27;20043;-88
2022/03/19 01:52:05;;;;;;;9.38;2.10;;;5.30;99.50;;;;;;4251996;28;20054;-88
2022/03/19 01:54:07;;;;;;;4.63;1.77;;;4.30;99.20;;;;;;4287640;27;20029;-89
2022/03/19 01:56:10;;;;;;;10.27;1.88;;;4.30;99.50;;;;;;4269493;27;20039;-88
2022/03/19 01:58:11;;;;;;;7.38;1.80;;;5.00;99.80;;;;;;4269179;27;20050;-89
2022/03/19 02:00:17;;;;;;;7.60;1.52;;;4.50;99.70;;;;;;4269153;27;20059;-88
2022/03/19 02:02:19;;;;;;;5.75;2.05;;;4.20;99.60;;;;;;4287160;27;20037;-89
2022/03/19 02:04:21;;;;;;;8.65;1.90;;;5.50;99.90;;;;;;4285847;27;20070;-89
2022/03/19 02:06:28;;;;;;;8.30;1.50;;;5.10;99.90;;;;;;4269447;27;20066;-89
2022/03/19 02:08:29;;;;;;;10.82;1.52;;;5.30;99.80;;;;;;4269041;27;20039;-88
2022/03/19 02:10:30;;;;;;;5.55;1.45;;;5.10;99.80;;;;;;4252714;28;20058;-89
2022/03/19 02:12:31;;;;;;;10.40;1.90;;;4.70;99.90;;;;;;4252786;28;20028;-89
2022/03/19 02:14:39;;;;;;;10.15;1.83;;;5.20;99.90;;;;;;4269643;27;20038;-88
2022/03/19 02:16:40;;;;;;;9.88;2.00;;;4.60;99.90;;;;;;4236182;28;20047;-88
2022/03/19 02:18:42;;;;;;;9.60;2.42;;;4.00;99.80;;;;;;4235996;28;20071;-88
2022/03/19 02:20:43;;;;;;;11.85;1.92;;;5.20;99.90;;;;;;4250161;28;20058;-87
2022/03/19 02:25:34;;;;;;;6.57;2.00;;;4.00;99.90;;;;;;4245278;28;20051;-88
2022/03/19 02:27:25;;;;;;;11.10;3.55;;;3.90;99.90;;;;;;4248692;28;20077;-88
2022/03/19 02:29:27;;;;;;;10.32;1.73;;;3.90;99.90;;;;;;4246366;28;20139;-87
2022/03/19 02:31:28;;;;;;;16.50;3.10;;;4.60;99.90;;;;;;4243045;28;20047;-88
2022/03/19 02:33:30;;;;;;;10.95;1.52;;;3.90;99.90;;;;;;4243891;28;20108;-87
2022/03/19 02:35:30;;;;;;;8.85;1.70;;;3.80;99.90;;;;;;4248701;28;20039;-87
2022/03/19 02:37:43;;;;;;;9.02;2.50;;;3.80;99.90;;;;;;4251796;28;20155;-88
2022/03/19 02:39:44;;;;;;;5.55;1.42;;;3.80;99.90;;;;;;4270377;27;20062;-88
2022/03/19 02:41:49;;;;;;;14.35;2.10;;;3.80;99.90;;;;;;4235821;28;20051;-88
2022/03/19 02:43:50;;;;;;;9.20;1.45;;;3.80;99.90;;;;;;4232775;28;20051;-87
2022/03/19 02:45:51;;;;;;;11.65;1.52;;;4.40;99.90;;;;;;4233411;28;20048;-89
2022/03/19 02:47:59;;;;;;;7.60;1.83;;;4.50;99.90;;;;;;4263883;27;20107;-88
2022/03/19 02:50:02;;;;;;;7.03;1.60;;;4.80;99.90;;;;;;4248312;28;20081;-88
2022/03/19 02:52:04;;;;;;;21.25;2.17;;;3.70;99.90;;;;;;4243486;28;20043;-88
2022/03/19 02:54:08;;;;;;;12.25;2.10;;;3.60;99.90;;;;;;4261085;27;20039;-88
2022/03/19 02:56:10;;;;;;;10.02;2.15;;;3.60;99.90;;;;;;4232065;28;20081;-88
2022/03/19 02:58:11;;;;;;;8.38;1.88;;;4.80;99.90;;;;;;4248465;28;20056;-87
2022/03/19 03:00:14;;;;;;;15.70;2.78;;;4.40;99.90;;;;;;4256852;27;20043;-88
2022/03/19 03:02:16;;;;;;;10.15;1.65;;;3.60;99.90;;;;;;4220636;28;20055;-89
2022/03/19 03:04:19;;;;;;;7.53;1.27;;;4.00;99.90;;;;;;4234375;28;20440;-89
2022/03/19 03:06:20;;;;;;;6.43;1.67;;;3.50;99.90;;;;;;4252624;27;20587;-89
2022/03/19 03:08:23;;;;;;;9.63;1.80;;;3.50;99.90;;;;;;4217662;28;20043;-89
2022/03/19 03:10:25;;;;;;;11.95;2.28;;;4.80;99.90;;;;;;4234755;28;20099;-89
2022/03/19 03:12:26;;;;;;;4.93;1.73;;;3.60;99.90;;;;;;4263748;27;20066;-89
2022/03/19 03:14:27;;;;;;;10.55;1.90;;;3.50;99.90;;;;;;4244793;28;20042;-89
2022/03/19 03:16:30;;;;;;;6.90;1.65;;;3.90;99.90;;;;;;4252118;27;20050;-89
2022/03/19 03:18:31;;;;;;;7.93;2.78;;;3.40;99.90;;;;;;4234790;28;20051;-88
2022/03/19 03:20:33;;;;;;;7.55;1.40;;;3.50;99.90;;;;;;4269650;27;20477;-88
2022/03/19 03:22:36;;;;;;;9.40;2.38;;;3.50;99.90;;;;;;4251971;27;20073;-89
2022/03/19 03:24:38;;;;;;;8.80;1.65;;;4.70;99.90;;;;;;4236934;28;20054;-88
2022/03/19 03:26:40;;;;;;;6.70;1.73;;;4.50;99.90;;;;;;4277953;27;20043;-88
2022/03/19 03:28:41;;;;;;;9.30;1.70;;;3.60;99.90;;;;;;4235021;28;20047;-88
2022/03/19 03:30:42;;;;;;;6.05;1.70;;;3.70;99.90;;;;;;4250909;27;20039;-88
2022/03/19 03:32:43;;;;;;;9.13;2.35;;;3.40;99.90;;;;;;4250885;27;20035;-88
2022/03/19 03:34:44;;;;;;;5.55;1.45;;;4.30;99.90;;;;;;4269689;27;20046;-89
2022/03/19 03:36:45;;;;;;;9.43;1.88;;;3.30;99.90;;;;;;4236064;28;20117;-89
2022/03/19 03:38:48;;;;;;;8.80;2.55;;;3.30;99.90;;;;;;4238599;28;20534;-88
2022/03/19 03:40:50;;;;;;;6.15;1.70;;;4.40;99.90;;;;;;4240484;28;20090;-87
2022/03/19 03:42:52;;;;;;;10.43;2.35;;;2.90;99.90;;;;;;4244497;28;20073;-88
2022/03/19 03:44:58;;;;;;;13.43;2.58;;;3.20;99.90;;;;;;4244323;28;20096;-88
2022/03/19 03:46:58;;;;;;;10.77;1.80;;;3.80;99.90;;;;;;4235501;28;20126;-89
2022/03/19 03:49:02;;;;;;;6.20;1.70;;;3.80;99.90;;;;;;4269479;27;20537;-88
2022/03/19 03:51:06;;;;;;;6.25;2.60;;;3.20;99.90;;;;;;4252306;27;20101;-88
2022/03/19 03:53:07;;;;;;;16.25;2.70;;;4.30;99.90;;;;;;4272273;27;20043;-88
2022/03/19 03:55:09;;;;;;;7.38;2.13;;;3.50;99.90;;;;;;4237264;28;20107;-88
2022/03/19 03:57:10;;;;;;;8.75;2.13;;;3.90;99.90;;;;;;4250152;27;20051;-88
2022/03/19 03:59:10;;;;;;;7.80;2.58;;;3.20;99.90;;;;;;4232996;28;20377;-89
2022/03/19 04:01:11;;;;;;;6.18;1.70;;;3.20;99.90;;;;;;4268930;27;20038;-89
2022/03/19 04:03:13;;;;;;;5.53;2.05;;;3.10;99.90;;;;;;4276534;27;20042;-88
2022/03/19 04:05:14;;;;;;;11.05;2.30;;;4.20;99.90;;;;;;4250788;27;20054;-88
2022/03/19 04:07:15;;;;;;;9.10;1.67;;;3.30;99.90;;;;;;4234490;28;20047;-88
2022/03/19 04:09:16;;;;;;;9.43;2.05;;;3.10;99.90;;;;;;4250588;27;20035;-89
2022/03/19 04:11:18;;;;;;;9.75;2.67;;;3.60;99.90;;;;;;4273053;27;20042;-88
2022/03/19 04:13:20;;;;;;;10.93;2.15;;;3.40;99.90;;;;;;4249172;28;20113;-88
2022/03/19 04:15:20;;;;;;;8.25;2.75;;;4.00;99.90;;;;;;4285579;27;20037;-87
2022/03/19 04:17:25;;;;;;;17.13;3.03;;;3.50;99.90;;;;;;4267037;27;20043;-88
2022/03/19 04:19:26;;;;;;;10.18;2.47;;;3.00;99.90;;;;;;4248983;28;20020;-87
2022/03/19 04:21:27;;;;;;;8.50;1.85;;;3.00;99.90;;;;;;4238908;28;20085;-87
2022/03/19 04:23:29;;;;;;;12.82;2.92;;;4.10;99.90;;;;;;4249871;28;20050;-89
2022/03/19 04:25:33;;;;;;;11.95;2.22;;;2.90;99.90;;;;;;4232755;28;20043;-87
2022/03/19 04:27:33;;;;;;;9.40;2.05;;;2.90;99.90;;;;;;4233484;28;20083;-88
2022/03/19 04:29:35;;;;;;;10.20;3.13;;;3.50;99.90;;;;;;4248629;28;20032;-89
2022/03/19 04:31:36;;;;;;;10.55;2.92;;;2.90;99.90;;;;;;4252362;28;20043;-88
2022/03/19 04:33:37;;;;;;;13.57;2.40;;;3.30;99.90;;;;;;4234122;28;20419;-89
2022/03/19 04:38:04;;;;;;;7.65;2.47;;;2.80;99.90;;;;;;4232282;28;20055;-89
2022/03/19 04:40:06;;;;;;;9.00;2.15;;;3.30;99.90;;;;;;4232472;28;20114;-89
2022/03/19 04:42:06;;;;;;;8.38;2.80;;;2.80;99.90;;;;;;4250297;28;20051;-88
2022/03/19 04:44:08;;;;;;;9.52;2.75;;;2.80;99.90;;;;;;4231507;28;20036;-88
2022/03/19 04:46:10;;;;;;;12.43;2.75;;;3.90;99.90;;;;;;4231453;28;20032;-87
2022/03/19 04:48:12;;;;;;;11.45;2.45;;;2.90;99.90;;;;;;4214481;28;20131;-88
2022/03/19 04:50:14;;;;;;;14.25;3.45;;;2.80;99.90;;;;;;4215092;28;20157;-88
2022/03/19 04:52:15;;;;;;;9.10;2.90;;;2.70;99.90;;;;;;4214740;28;20083;-88
2022/03/19 04:54:16;;;;;;;11.95;3.03;;;4.10;99.90;;;;;;4231558;28;20051;-89
2022/03/19 04:56:23;;;;;;;7.75;3.40;;;3.30;99.90;;;;;;4249051;28;20384;-89
2022/03/19 04:58:25;;;;;;;10.43;3.70;;;2.90;99.90;;;;;;4214500;28;20527;-89
2022/03/19 05:00:27;;;;;;;8.88;3.00;;;3.80;99.90;;;;;;4231589;28;20483;-88
2022/03/19 05:02:28;;;;;;;8.75;2.95;;;2.80;99.90;;;;;;4249398;28;20042;-89
2022/03/19 05:04:29;;;;;;;10.18;2.40;;;4.00;99.90;;;;;;4232218;28;20040;-89
2022/03/19 05:06:31;;;;;;;10.55;2.42;;;2.90;99.90;;;;;;4216321;28;20416;-88
2022/03/19 05:08:33;;;;;;;15.25;3.03;;;2.70;99.90;;;;;;4250623;28;20039;-87
2022/03/19 05:12:54;;;;;;;9.50;3.35;;;3.30;99.90;;;;;;4234046;28;20527;-88
2022/03/19 05:14:55;;;;;;;11.82;3.97;;;3.60;99.90;;;;;;4231359;28;20042;-89
2022/03/19 05:16:57;;;;;;;16.13;4.88;;;2.60;99.90;;;;;;4249831;28;20051;-88
2022/03/19 05:18:58;;;;;;;8.98;2.75;;;2.20;99.90;;;;;;4214510;28;20048;-89
2022/03/19 05:20:59;;;;;;;15.65;3.03;;;3.90;99.90;;;;;;4249232;28;20059;-89
2022/03/19 05:23:05;;;;;;;14.88;3.20;;;3.20;99.90;;;;;;4214304;28;20072;-88
2022/03/19 05:25:06;;;;;;;11.43;2.53;;;2.60;99.90;;;;;;4214895;28;20044;-88
2022/03/19 05:27:11;;;;;;;15.88;3.13;;;2.60;99.90;;;;;;4215028;28;20076;-89
2022/03/19 05:29:12;;;;;;;12.75;4.05;;;3.40;99.90;;;;;;4253734;27;20039;-90
2022/03/19 05:31:12;;;;;;;10.93;3.42;;;2.40;99.90;;;;;;4252327;27;20097;-89
2022/03/19 05:33:14;;;;;;;8.90;3.28;;;3.00;99.90;;;;;;4252788;27;20122;-89
2022/03/19 05:35:18;;;;;;;9.23;3.47;;;4.00;99.90;;;;;;4252485;27;20040;-89
2022/03/19 05:37:19;;;;;;;15.43;4.35;;;2.60;99.90;;;;;;4233254;28;20043;-89
2022/03/19 05:39:21;;;;;;;11.18;3.38;;;3.60;99.90;;;;;;4216895;28;20144;-88
2022/03/19 05:41:24;;;;;;;11.23;4.05;;;3.50;99.90;;;;;;4217442;28;20133;-88
2022/03/19 05:43:24;;;;;;;11.90;3.25;;;3.70;99.90;;;;;;4235033;28;20070;-88
2022/03/19 05:45:25;;;;;;;11.57;3.45;;;3.40;99.90;;;;;;4218093;28;20056;-88
2022/03/19 05:47:27;;;;;;;9.77;2.92;;;2.60;99.90;;;;;;4251399;27;20054;-89
2022/03/19 05:49:29;;;;;;;9.80;3.05;;;2.20;99.90;;;;;;4251512;27;20043;-87
2022/03/19 05:51:31;;;;;;;10.88;3.45;;;3.00;99.90;;;;;;4235700;28;20212;-90
2022/03/19 05:53:31;;;;;;;8.02;3.53;;;3.10;99.90;;;;;;4235399;28;20043;-89
2022/03/19 05:55:32;;;;;;;8.65;2.92;;;3.00;99.90;;;;;;4235203;28;20126;-89
2022/03/19 05:57:34;;;;;;;8.57;3.90;;;2.40;99.90;;;;;;4218168;28;20044;-89
2022/03/19 05:59:35;;;;;;;8.88;2.72;;;3.30;99.90;;;;;;4217738;28;20051;-89
2022/03/19 06:01:37;;;;;;;8.25;3.08;;;1.50;99.90;;;;;;4235101;28;20407;-88
2022/03/19 06:03:39;;;;;;;8.93;3.00;;;3.10;99.90;;;;;;4218087;28;20428;-88
2022/03/19 06:05:40;;;;;;;9.25;2.67;;;2.50;99.90;;;;;;4219033;28;20048;-87
2022/03/19 06:07:41;;;;;;;10.18;3.10;;;2.40;99.90;;;;;;4246607;27;20079;-89
2022/03/19 06:09:43;;;;;;;8.98;3.17;;;3.30;99.90;;;;;;4234606;28;20437;-87
2022/03/19 06:11:45;;;;;;;10.93;3.10;;;3.10;99.90;;;;;;4234773;28;20091;-89
2022/03/19 06:13:48;;;;;;;9.40;3.13;;;2.40;99.90;;;;;;4263415;27;20046;-88
2022/03/19 06:15:49;;;;;;;7.68;3.13;;;3.40;99.90;;;;;;4234935;28;20051;-88
2022/03/19 06:17:50;;;;;;;11.90;3.30;;;3.00;99.90;;;;;;4233824;28;20396;-88
2022/03/19 06:19:51;;;;;;;13.15;4.18;;;3.40;99.90;;;;;;4233309;28;20055;-88
2022/03/19 06:21:53;;;;;;;9.55;3.72;;;3.70;99.90;;;;;;4269012;27;20375;-88
2022/03/19 06:23:55;;;;;;;9.40;3.72;;;3.40;99.90;;;;;;4233801;28;20039;-88
2022/03/19 06:25:56;;;;;;;15.07;4.32;;;2.40;99.90;;;;;;4234147;28;20048;-87
2022/03/19 06:27:57;;;;;;;12.55;3.72;;;3.30;99.90;;;;;;4233361;28;20050;-89
2022/03/19 06:30:00;;;;;;;9.60;4.07;;;3.10;99.90;;;;;;4233651;28;20122;-88
2022/03/19 06:32:00;;;;;;;10.20;4.28;;;1.50;99.90;;;;;;4234190;28;20130;-88
2022/03/19 06:34:03;;;;;;;16.63;4.32;;;3.00;99.90;;;;;;4269684;27;20042;-88
2022/03/19 06:38:27;;;;;;;10.85;4.22;;;2.50;99.90;;;;;;4268977;27;20076;-89
2022/03/19 06:40:29;;;;;;;12.77;4.05;;;2.60;99.90;;;;;;4251131;27;20095;-89
2022/03/19 06:42:30;;;;;;;13.52;4.82;;;2.60;99.90;;;;;;4233970;28;20057;-88
2022/03/19 06:44:33;;;;;;;12.60;3.97;;;2.60;99.90;;;;;;4268528;27;20550;-88
2022/03/19 06:46:34;;;;;;;13.57;4.55;;;3.20;99.90;;;;;;4233778;28;20075;-88
2022/03/19 06:48:36;;;;;;;10.35;4.15;;;2.80;99.90;;;;;;4233112;28;20113;-88
2022/03/19 06:50:37;;;;;;;13.13;4.15;;;2.80;99.90;;;;;;4233869;28;20039;-88
2022/03/19 06:52:38;;;;;;;11.48;5.45;;;4.20;99.90;;;;;;4268546;27;20406;-89
2022/03/19 06:54:40;;;;;;;11.15;4.63;;;3.00;99.90;;;;;;4269620;27;20041;-89
2022/03/19 06:56:41;;;;;;;13.57;4.65;;;3.20;99.90;;;;;;4233645;28;20061;-89
2022/03/19 06:58:43;;;;;;;16.17;4.90;;;3.10;99.90;;;;;;4250451;27;20078;-89
2022/03/19 07:00:48;;;;;;;14.90;4.82;;;2.50;99.90;;;;;;4269043;27;20047;-88
2022/03/19 07:02:52;;;;;;;11.57;4.80;;;3.30;99.90;;;;;;4250217;27;20580;-89
2022/03/19 07:04:55;;;;;;;11.95;5.20;;;3.20;99.90;;;;;;4259277;27;20041;-88
2022/03/19 07:06:57;;;;;;;15.13;4.82;;;4.10;99.90;;;;;;4249559;27;20039;-89
2022/03/19 07:08:58;;;;;;;13.38;4.38;;;3.70;99.90;;;;;;4233412;28;20097;-88
2022/03/19 07:11:01;;;;;;;11.45;4.47;;;3.80;99.90;;;;;;4233026;28;20568;-88
2022/03/19 07:13:03;;;;;;;18.83;5.00;;;4.90;99.90;;;;;;4236577;27;20043;-89
2022/03/19 07:15:04;;;;;;;10.27;3.42;;;5.20;99.90;;;;;;4232497;28;20442;-88
2022/03/19 07:17:05;;;;;;;19.67;4.70;;;4.30;99.90;;;;;;4267757;27;20547;-89
2022/03/19 07:19:06;;;;;;;10.68;3.97;;;5.00;99.90;;;;;;4232382;28;20047;-89
2022/03/19 07:21:10;;;;;;;14.48;3.83;;;5.80;99.90;;;;;;4267774;27;20111;-88
2022/03/19 07:23:11;;;;;;;11.52;4.03;;;6.00;99.90;;;;;;4267857;27;20054;-89
2022/03/19 07:25:12;;;;;;;17.15;4.35;;;4.70;99.90;;;;;;4249542;27;20043;-89
2022/03/19 07:27:13;;;;;;;15.77;4.05;;;5.10;99.90;;;;;;4249382;27;20460;-89
2022/03/19 07:29:19;;;;;;;15.50;4.18;;;6.20;99.90;;;;;;4249725;27;20073;-88
2022/03/19 07:31:21;;;;;;;13.43;4.00;;;6.60;99.90;;;;;;4267567;27;20376;-87
2022/03/19 07:33:23;;;;;;;13.30;3.92;;;6.60;99.90;;;;;;4268288;27;20039;-88
2022/03/19 07:35:24;;;;;;;12.77;3.85;;;6.50;99.90;;;;;;4232687;28;20496;-87
2022/03/19 07:37:25;;;;;;;11.57;4.47;;;5.90;99.90;;;;;;4232636;28;20047;-88
2022/03/19 07:39:27;;;;;;;17.13;4.70;;;6.90;99.90;;;;;;4268348;27;20075;-87
2022/03/19 07:41:48;;;;;;;17.40;4.68;;;6.10;99.90;;;;;;4269228;27;20035;-89
2022/03/19 07:43:49;;;;;;;11.07;3.15;;;;;;;;;;4239977;28;20031;-89
2022/03/19 07:45:51;;;;;;;18.48;5.13;;;;;;;;;;4238526;28;20054;-89
2022/03/19 07:47:54;;;;;;;13.68;3.50;;;;;;;;;;4266854;27;20091;-89
2022/03/19 07:49:55;;;;;;;12.93;4.15;;;;;;;;;;4267419;27;20042;-88
2022/03/19 07:51:56;;;;;;;16.77;3.75;;;;;;;;;;4230625;28;20035;-87
2022/03/19 07:53:57;;;;;;;17.33;3.70;;;;;;;;;;4267113;27;20555;-87
2022/03/19 07:56:00;;;;;;;19.33;4.32;;;;;;;;;;4248504;27;20047;-87
2022/03/19 07:58:03;;;;;;;18.10;4.13;;;;;;;;;;4266480;27;20065;-87
2022/03/19 08:00:05;;;;;;;15.63;3.45;;;;;;;;;;4267164;27;20065;-87
2022/03/19 08:02:06;;;;;;;13.95;3.33;;;;;;;;;;4247329;27;20096;-87
2022/03/19 08:04:07;;;;;;;9.80;3.25;;;;;;;;;;4247665;27;20522;-88
2022/03/19 08:06:08;;;;;;;9.60;3.55;;;;;;;;;;4247314;27;20047;-89
2022/03/19 08:08:10;;;;;;;13.82;3.63;;;;;;;;;;4247135;27;20132;-89
2022/03/19 08:10:11;;;;;;;14.90;3.33;;;;;;;;;;4229809;28;20039;-88
2022/03/19 08:12:13;;;;;;;14.05;4.28;;;;;;;;;;4265380;27;20034;-88
2022/03/19 08:14:15;;;;;;;9.07;2.70;;;;;;;;;;4265514;27;20146;-87
2022/03/19 08:16:16;;;;;;;12.10;3.00;;;;;;;;;;4265646;27;20088;-88
2022/03/19 08:18:17;;;;;;;14.63;3.78;;;;;;;;;;4249784;27;20055;-87
2022/03/19 08:20:18;;;;;;;11.57;2.65;;;;;;;;;;4246805;27;20055;-88
2022/03/19 08:22:19;;;;;;;15.63;4.97;;;;;;;;;;4265410;27;20567;-88
2022/03/19 08:24:23;;;;;;;9.13;3.25;;;;;;;;;;4264875;27;20042;-89
2022/03/19 08:26:25;;;;;;;13.88;3.53;;;;;;;;;;4266177;27;20125;-87
2022/03/19 08:28:26;;;;;;;12.18;2.67;;;;;;;;;;4265761;27;20035;-88
2022/03/19 08:30:27;;;;;;;11.80;2.88;;;;;;;;;;4247170;28;20045;-87
2022/03/19 08:32:28;;;;;;;11.18;3.03;;;;;;;;;;4265386;27;20126;-88
2022/03/19 08:34:30;;;;;;;8.45;2.42;;;;;;;;;;4265181;27;20088;-88
2022/03/19 08:36:31;;;;;;;11.75;2.78;;;;;;;;;;4265211;27;20042;-88
2022/03/19 08:40:52;;;;;;;12.02;2.70;;;;;;;;;;4246990;28;20403;-89
2022/03/19 08:42:53;;;;;;;11.20;2.72;;;;;;;;;;4246167;28;20043;-89
2022/03/19 08:44:57;;;;;;;11.35;2.35;;;;;;;;;;4265326;27;20515;-88
2022/03/19 08:46:59;;;;;;;13.02;2.55;;;;;;;;;;4265056;27;20077;-88
2022/03/19 08:49:03;;;;;;;13.00;3.70;;;;;;;;;;4265326;27;20043;-88
2022/03/19 08:53:24;;;;;;;11.05;2.58;;;;;;;;;;4246537;28;20051;-88
2022/03/19 08:55:25;;;;;;;13.48;3.10;;;;;;;;;;4247581;28;20111;-87
2022/03/19 08:57:26;;;;;;;8.88;2.88;;;;;;;;;;4265142;27;20046;-89
2022/03/19 08:59:28;;;;;;;12.15;3.65;;;;;;;;;;4265504;27;20505;-88
2022/03/19 09:01:29;;;;;;;9.68;2.42;;;;;;;;;;4247101;27;20039;-89
2022/03/19 09:03:30;;;;;;;15.30;3.08;;;;;;;;;;4250139;27;20047;-88
2022/03/19 09:05:32;;;;;;;13.88;3.08;;;;;;;;;;4250177;27;20039;-89
2022/03/19 09:07:33;;;;;;;12.43;2.42;;;;;;;;;;4250437;27;20543;-88
2022/03/19 09:09:35;;;;;;;10.85;2.60;;;;;;;;;;4250287;27;20101;-88
2022/03/19 09:11:37;;;;;;;10.85;2.65;;;;;;;;;;4268874;27;20398;-88
2022/03/19 09:13:39;;;;;;;13.55;2.42;;;;;;;;;;4268769;27;20081;-88
2022/03/19 09:15:40;;;;;;;12.50;2.25;;;;;;;;;;4269438;27;20051;-88
2022/03/19 09:17:43;;;;;;;7.03;2.03;;;;;;;;;;4269018;27;20499;-88
2022/03/19 09:19:44;;;;;;;11.05;2.33;;;;;;;;;;4268755;27;20051;-88
2022/03/19 09:21:45;;;;;;;14.68;3.05;;;;;;;;;;4270134;27;20042;-87
2022/03/19 09:23:47;;;;;;;8.57;1.88;;;;;;;;;;4270408;27;20068;-89
2022/03/19 09:25:48;;;;;;;8.60;2.15;;;;;;;;;;4270857;27;20043;-88
2022/03/19 09:27:49;;;;;;;11.70;2.58;;;;;;;;;;4270896;27;20047;-88
2022/03/19 09:29:51;;;;;;;9.48;2.28;;;;;;;;;;4269933;27;20046;-88
2022/03/19 09:31:52;;;;;;;8.98;3.10;;;;;;;;;;4270165;27;20047;-89
2022/03/19 09:33:53;;;;;;;9.65;2.35;;;;;;;;;;4251564;27;20040;-88
2022/03/19 09:35:54;;;;;;;10.50;1.90;;;;;;;;;;4269508;27;20135;-89
2022/03/19 09:37:56;;;;;;;7.97;1.90;;;;;;;;;;4271237;27;20121;-85
2022/03/19 09:39:57;;;;;;;11.43;2.42;;;;;;;;;;4270897;27;20384;-88
2022/03/19 09:41:58;;;;;;;4.47;1.60;;;;;;;;;;4270295;27;20050;-88
2022/03/19 09:44:00;;;;;;;8.07;1.85;;;;;;;;;;4253094;27;20047;-87
2022/03/19 09:46:03;;;;;;;7.95;2.00;;;;;;;;;;4252633;27;20126;-89
2022/03/19 09:48:04;;;;;;;10.52;2.00;;;;;;;;;;4269842;27;20064;-88
2022/03/19 09:50:05;;;;;;;12.45;3.47;;;;;;;;;;4270166;27;20043;-88
2022/03/19 09:52:07;;;;;;;13.27;2.65;;;;;;;;;;4250444;27;20450;-88
2022/03/19 09:54:10;;;;;;;9.32;2.20;;;;;;;;;;4251922;27;20431;-88
2022/03/19 09:56:11;;;;;;;10.10;2.35;;;;;;;;;;4270212;27;20510;-87
2022/03/19 09:58:15;;;;;;;5.72;2.20;;;;;;;;;;4235010;28;20147;-83
2022/03/19 10:00:16;;;;;;;11.43;2.60;;;;;;;;;;4249902;27;20051;-86
2022/03/19 10:02:19;;;;;;;10.98;2.33;;;;;;;;;;4268707;27;20043;-86
2022/03/19 10:04:20;;;;;;;10.18;2.42;;;;;;;;;;4267975;27;20043;-86
2022/03/19 10:08:53;;;;;;;8.30;2.00;;;;;;;;;;4266424;27;20398;-84
2022/03/19 10:10:55;;;;;;;11.27;2.38;;;;;;;;;;4250508;27;20092;-85
2022/03/19 10:12:56;;;;;;;11.90;2.92;;;;;;;;;;4268303;27;20071;-84
2022/03/19 10:14:58;;;;;;;6.15;2.40;;;;;;;;;;4250248;27;20472;-85
2022/03/19 10:16:59;;;;;;;8.40;2.20;;;;;;;;;;4250094;27;20061;-85
2022/03/19 10:19:03;;;;;;;11.25;2.35;;;;;;;;;;4268679;27;20047;-85
2022/03/19 10:21:14;;;;;;;9.40;2.17;;;;;;;;;;4272552;27;20058;-85
2022/03/19 10:23:18;;;;;;;8.13;2.13;;;;;;;;;;4269648;27;20043;-85
2022/03/19 10:25:20;;;;;;;7.93;2.20;;;;;;;;;;4254257;27;20461;-84
2022/03/19 10:27:21;;;;;;;10.27;2.38;;;;;;;;;;4250057;27;20088;-84
2022/03/19 10:29:33;;;;;;;7.75;1.90;;;;;;;;;;4233189;28;20130;-85
2022/03/19 10:31:36;;;;;;;6.53;2.08;;;;;;;;;;4254997;27;20043;-85
2022/03/19 10:33:37;;;;;;;7.00;1.88;;;;;;;;;;4250135;27;20137;-85
2022/03/19 10:35:39;;;;;;;5.30;1.85;;;;;;;;;;4232901;28;20051;-84
2022/03/19 10:37:41;;;;;;;8.77;2.05;;;;;;;;;;4250810;27;20071;-85
2022/03/19 10:39:46;;;;;;;7.07;1.65;;;;;;;;;;4269154;27;20047;-85
2022/03/19 10:41:53;;;;;;;6.13;1.42;;;;;;;;;;4233139;28;20052;-84
2022/03/19 10:43:54;;;;;;;7.65;2.75;;;;;;;;;;4268497;27;20111;-85
2022/03/19 10:45:55;;;;;;;8.43;1.95;;;;;;;;;;4268270;27;20524;-85
2022/03/19 10:47:56;;;;;;;7.45;1.98;;;;;;;;;;4249937;27;20077;-84
2022/03/19 10:50:01;;;;;;;5.88;1.38;;;;;;;;;;4267865;27;20538;-85
2022/03/19 10:52:02;;;;;;;5.80;1.55;;;;;;;;;;4232951;28;20483;-84
2022/03/19 10:54:04;;;;;;;6.10;1.30;;;;;;;;;;4269233;27;20035;-85
2022/03/19 10:56:07;;;;;;;6.32;1.40;;;;;;;;;;4268243;27;20042;-85
2022/03/19 10:58:08;;;;;;;7.05;1.50;;;;;;;;;;4249967;27;20095;-84
2022/03/19 11:00:10;;;;;;;6.00;1.77;;;;;;;;;;4232374;28;20048;-85
2022/03/19 11:02:12;;;;;;;5.95;1.75;;;;;;;;;;4247793;27;20042;-85
2022/03/19 11:04:15;;;;;;;8.35;1.95;;;;;;;;;;4248659;27;20051;-85
2022/03/19 11:06:19;;;;;;;5.93;1.80;;;;;;;;;;4249885;27;20070;-85
2022/03/19 11:08:22;;;;;;;3.50;1.40;;;;;;;;;;4250800;27;20109;-84
2022/03/19 11:10:23;;;;;;;5.70;1.42;;;;;;;;;;4251499;27;20043;-84
2022/03/19 11:12:27;;;;;;;6.05;1.27;;;;;;;;;;4250733;27;20046;-84
2022/03/19 11:14:29;;;;;;;5.47;1.50;;;;;;;;;;4249078;27;20043;-84
2022/03/19 11:16:35;;;;;;;7.03;1.60;;;;;;;;;;4234201;28;20542;-84
2022/03/19 11:18:40;;;;;;;4.25;1.55;;;;;;;;;;4253684;27;20039;-86
2022/03/19 11:20:41;;;;;;;6.38;1.63;;;;;;;;;;4230005;28;20086;-86